createdAt,value
2018-10-01T00:00:05.998Z,84.55
2018-10-01T00:01:05.990Z,84.16
2018-10-01T00:02:05.980Z,84.55
2018-10-01T00:03:05.972Z,84.36
2018-10-01T00:04:05.963Z,84.07
2018-10-01T00:05:05.955Z,84.45
2018-10-01T00:06:05.945Z,84.64
2018-10-01T00:07:05.937Z,85.31
2018-10-01T00:08:05.929Z,85.16
2018-10-01T00:09:05.921Z,85.45
2018-10-01T00:10:05.912Z,85.41
2018-10-01T00:11:05.920Z,84.74
2018-10-01T00:12:05.895Z,84.16
2018-10-01T00:13:05.887Z,84.26
2018-10-01T00:14:05.878Z,83.88
2018-10-01T00:15:05.870Z,83.31
2018-10-01T00:16:05.864Z,82.92
2018-10-01T00:17:05.856Z,82.83
2018-10-01T00:18:05.844Z,82.73
2018-10-01T00:19:05.836Z,82.64
2018-10-01T00:20:05.827Z,82.92
2018-10-01T00:21:05.819Z,83.69
2018-10-01T00:22:05.811Z,82.64
2018-10-01T00:23:05.804Z,83.31
2018-10-01T00:24:05.794Z,83.40
2018-10-01T00:25:05.787Z,83.69
2018-10-01T00:26:05.777Z,83.40
2018-10-01T00:27:05.768Z,83.88
2018-10-01T00:28:05.761Z,84.45
2018-10-01T00:29:06.002Z,85.21
2018-10-01T00:30:05.742Z,84.55
2018-10-01T00:31:05.737Z,84.45
2018-10-01T00:32:05.725Z,85.50
2018-10-01T00:33:05.716Z,85.41
2018-10-01T00:34:05.708Z,85.60
2018-10-01T00:35:05.701Z,85.41
2018-10-01T00:36:05.690Z,85.41
2018-10-01T00:37:05.694Z,85.41
2018-10-01T00:38:05.672Z,85.60
2018-10-01T00:39:05.664Z,85.60
2018-10-01T00:40:05.655Z,85.31
2018-10-01T00:41:05.647Z,84.92
2018-10-01T00:42:05.637Z,84.74
2018-10-01T00:43:05.628Z,84.45
2018-10-01T00:44:05.620Z,84.16
2018-10-01T00:45:05.612Z,85.60
2018-10-01T00:46:05.602Z,85.60
2018-10-01T00:47:05.593Z,85.12
2018-10-01T00:48:05.788Z,85.88
2018-10-01T00:49:05.577Z,85.78
2018-10-01T00:50:05.569Z,86.45
2018-10-01T00:51:05.559Z,86.45
2018-10-01T00:52:05.551Z,85.97
2018-10-01T00:53:05.543Z,85.97
2018-10-01T00:54:05.533Z,86.03
2018-10-01T00:55:05.525Z,86.51
2018-10-01T00:56:05.517Z,86.74
2018-10-01T00:57:05.509Z,86.74
2018-10-01T00:58:05.498Z,86.93
2018-10-01T00:59:05.495Z,87.60
2018-10-01T01:00:05.484Z,87.88
2018-10-01T01:01:05.474Z,87.93
2018-10-01T01:02:05.465Z,88.12
2018-10-01T01:03:05.458Z,88.31
2018-10-01T01:04:05.453Z,88.70
2018-10-01T01:05:05.440Z,88.70
2018-10-01T01:06:05.430Z,88.70
2018-10-01T01:07:05.427Z,88.89
2018-10-01T01:08:05.414Z,88.89
2018-10-01T01:09:05.405Z,89.26
2018-10-01T01:10:05.396Z,89.84
2018-10-01T01:11:05.388Z,89.36
2018-10-01T01:12:05.381Z,89.65
2018-10-01T01:13:05.371Z,89.46
2018-10-01T01:14:05.361Z,89.46
2018-10-01T01:15:05.355Z,90.22
2018-10-01T01:16:05.345Z,90.22
2018-10-01T01:17:05.340Z,90.79
2018-10-01T01:18:05.327Z,90.60
2018-10-01T01:19:05.319Z,90.50
2018-10-01T01:20:05.311Z,90.60
2018-10-01T01:21:05.302Z,90.41
2018-10-01T01:22:05.293Z,90.41
2018-10-01T01:23:05.291Z,90.22
2018-10-01T01:24:05.276Z,89.94
2018-10-01T01:25:05.268Z,90.41
2018-10-01T01:26:05.258Z,90.70
2018-10-01T01:27:05.249Z,90.60
2018-10-01T01:28:05.241Z,90.41
2018-10-01T01:29:05.232Z,90.12
2018-10-01T01:30:05.223Z,90.79
2018-10-01T01:31:05.214Z,90.50
2018-10-01T01:32:05.206Z,90.60
2018-10-01T01:33:05.198Z,90.41
2018-10-01T01:34:05.188Z,91.08
2018-10-01T01:35:05.180Z,90.60
2018-10-01T01:36:05.171Z,90.22
2018-10-01T01:37:05.163Z,90.41
2018-10-01T01:38:05.158Z,91.08
2018-10-01T01:39:05.145Z,91.36
2018-10-01T01:40:05.138Z,91.46
2018-10-01T01:41:05.176Z,90.98
2018-10-01T01:42:05.119Z,90.70
2018-10-01T01:43:05.114Z,90.50
2018-10-01T01:44:05.102Z,90.98
2018-10-01T01:45:05.094Z,91.55
2018-10-01T01:46:05.084Z,91.27
2018-10-01T01:47:05.074Z,91.74
2018-10-01T01:48:05.067Z,91.74
2018-10-01T01:49:05.058Z,91.74
2018-10-01T01:50:05.049Z,91.94
2018-10-01T01:51:05.039Z,91.94
2018-10-01T01:52:05.032Z,91.36
2018-10-01T01:53:05.074Z,91.74
2018-10-01T01:54:05.016Z,91.46
2018-10-01T01:55:05.005Z,91.94
2018-10-01T01:56:04.997Z,91.74
2018-10-01T01:57:04.988Z,91.94
2018-10-01T01:58:04.978Z,92.13
2018-10-01T01:59:04.970Z,92.13
2018-10-01T02:00:04.962Z,92.03
2018-10-01T02:01:04.953Z,92.03
2018-10-01T02:02:04.943Z,92.50
2018-10-01T02:03:04.941Z,92.50
2018-10-01T02:04:04.976Z,92.69
2018-10-01T02:05:04.918Z,92.50
2018-10-01T02:06:04.908Z,92.69
2018-10-01T02:07:04.908Z,92.89
2018-10-01T02:08:04.891Z,92.98
2018-10-01T02:09:04.882Z,92.79
2018-10-01T02:10:04.872Z,93.27
2018-10-01T02:11:04.864Z,93.37
2018-10-01T02:12:04.855Z,93.27
2018-10-01T02:13:04.847Z,93.37
2018-10-01T02:14:04.837Z,93.08
2018-10-01T02:15:04.828Z,93.74
2018-10-01T02:16:04.820Z,93.74
2018-10-01T02:17:04.811Z,93.74
2018-10-01T02:18:04.807Z,93.46
2018-10-01T02:19:04.793Z,93.17
2018-10-01T02:20:04.783Z,93.27
2018-10-01T02:21:04.775Z,93.17
2018-10-01T02:22:04.766Z,93.55
2018-10-01T02:23:04.755Z,93.93
2018-10-01T02:24:04.751Z,93.37
2018-10-01T02:25:04.740Z,93.08
2018-10-01T02:26:04.730Z,93.37
2018-10-01T02:27:04.721Z,93.65
2018-10-01T02:28:04.712Z,93.37
2018-10-01T02:29:04.705Z,93.37
2018-10-01T02:30:04.694Z,93.17
2018-10-01T02:31:04.686Z,93.55
2018-10-01T02:32:04.676Z,93.93
2018-10-01T02:33:04.668Z,93.46
2018-10-01T02:34:04.659Z,93.74
2018-10-01T02:35:04.650Z,93.74
2018-10-01T02:36:04.641Z,93.55
2018-10-01T02:37:04.633Z,93.46
2018-10-01T02:38:04.623Z,93.27
2018-10-01T02:39:04.615Z,93.46
2018-10-01T02:40:04.606Z,93.65
2018-10-01T02:41:04.601Z,93.84
2018-10-01T02:42:04.591Z,94.03
2018-10-01T02:43:04.579Z,93.93
2018-10-01T02:44:04.570Z,93.84
2018-10-01T02:45:04.567Z,93.74
2018-10-01T02:46:04.560Z,94.22
2018-10-01T02:47:04.543Z,94.13
2018-10-01T02:48:04.535Z,93.65
2018-10-01T02:49:04.527Z,94.41
2018-10-01T02:50:04.517Z,94.51
2018-10-01T02:51:04.508Z,94.51
2018-10-01T02:52:04.500Z,94.89
2018-10-01T02:53:04.496Z,94.70
2018-10-01T02:54:04.482Z,94.32
2018-10-01T02:55:04.472Z,94.41
2018-10-01T02:56:04.464Z,94.41
2018-10-01T02:57:04.455Z,94.22
2018-10-01T02:58:04.446Z,94.60
2018-10-01T02:59:04.436Z,94.51
2018-10-01T03:00:04.428Z,94.70
2018-10-01T03:01:04.419Z,94.51
2018-10-01T03:02:04.410Z,94.70
2018-10-01T03:03:04.401Z,94.70
2018-10-01T03:04:04.390Z,94.51
2018-10-01T03:05:04.382Z,94.79
2018-10-01T03:06:04.374Z,94.60
2018-10-01T03:07:04.364Z,94.70
2018-10-01T03:08:04.356Z,95.08
2018-10-01T03:09:04.347Z,94.79
2018-10-01T03:10:04.338Z,94.32
2018-10-01T03:11:04.333Z,94.51
2018-10-01T03:12:04.322Z,94.70
2018-10-01T03:13:04.312Z,94.03
2018-10-01T03:14:04.302Z,93.93
2018-10-01T03:15:04.382Z,93.74
2018-10-01T03:16:04.286Z,94.13
2018-10-01T03:17:04.277Z,94.51
2018-10-01T03:18:04.267Z,94.60
2018-10-01T03:19:04.294Z,94.51
2018-10-01T03:20:04.254Z,94.70
2018-10-01T03:21:04.260Z,94.89
2018-10-01T03:22:04.232Z,94.70
2018-10-01T03:23:04.222Z,94.60
2018-10-01T03:24:04.217Z,94.60
2018-10-01T03:25:04.208Z,94.98
2018-10-01T03:26:04.196Z,94.89
2018-10-01T03:27:04.191Z,94.89
2018-10-01T03:28:04.178Z,94.98
2018-10-01T03:29:04.171Z,95.27
2018-10-01T03:30:04.163Z,95.46
2018-10-01T03:31:04.153Z,95.08
2018-10-01T03:32:04.145Z,95.17
2018-10-01T03:33:04.133Z,95.46
2018-10-01T03:34:04.174Z,95.46
2018-10-01T03:35:04.117Z,95.36
2018-10-01T03:36:04.106Z,95.08
2018-10-01T03:37:04.097Z,95.46
2018-10-01T03:38:04.088Z,94.98
2018-10-01T03:39:04.078Z,95.27
2018-10-01T03:40:04.073Z,95.36
2018-10-01T03:41:04.071Z,95.75
2018-10-01T03:42:04.052Z,95.75
2018-10-01T03:43:04.043Z,96.03
2018-10-01T03:44:04.035Z,95.36
2018-10-01T03:45:04.028Z,95.36
2018-10-01T03:46:04.016Z,95.27
2018-10-01T03:47:04.008Z,95.46
2018-10-01T03:48:03.999Z,95.46
2018-10-01T03:49:03.989Z,96.32
2018-10-01T03:50:04.072Z,96.12
2018-10-01T03:51:03.970Z,95.84
2018-10-01T03:52:03.963Z,96.03
2018-10-01T03:53:03.958Z,95.65
2018-10-01T03:54:03.942Z,95.75
2018-10-01T03:55:03.940Z,95.84
2018-10-01T03:56:03.926Z,95.56
2018-10-01T03:57:04.118Z,95.84
2018-10-01T03:58:03.911Z,96.03
2018-10-01T03:59:03.897Z,95.65
2018-10-01T04:00:03.890Z,95.84
2018-10-01T04:01:03.879Z,95.84
2018-10-01T04:02:03.870Z,95.94
2018-10-01T04:03:03.880Z,96.32
2018-10-01T04:04:03.854Z,95.84
2018-10-01T04:05:03.844Z,95.84
2018-10-01T04:06:03.834Z,95.36
2018-10-01T04:07:03.825Z,95.17
2018-10-01T04:08:03.816Z,95.08
2018-10-01T04:09:03.808Z,94.70
2018-10-01T04:10:03.801Z,95.17
2018-10-01T04:11:03.790Z,95.08
2018-10-01T04:12:03.779Z,94.98
2018-10-01T04:13:03.771Z,95.27
2018-10-01T04:14:03.761Z,95.36
2018-10-01T04:15:03.752Z,94.98
2018-10-01T04:16:03.743Z,94.98
2018-10-01T04:17:03.734Z,95.27
2018-10-01T04:18:03.725Z,95.46
2018-10-01T04:19:03.716Z,95.27
2018-10-01T04:20:03.707Z,95.56
2018-10-01T04:21:03.709Z,95.46
2018-10-01T04:22:03.688Z,95.36
2018-10-01T04:23:03.681Z,95.17
2018-10-01T04:24:03.717Z,95.17
2018-10-01T04:25:03.662Z,94.51
2018-10-01T04:26:03.652Z,94.70
2018-10-01T04:27:03.658Z,94.51
2018-10-01T04:28:03.636Z,94.13
2018-10-01T04:29:03.626Z,94.79
2018-10-01T04:30:03.616Z,94.32
2018-10-01T04:31:03.608Z,94.51
2018-10-01T04:32:03.599Z,93.74
2018-10-01T04:33:03.840Z,94.51
2018-10-01T04:34:03.582Z,94.41
2018-10-01T04:35:03.573Z,94.51
2018-10-01T04:36:03.565Z,94.70
2018-10-01T04:37:03.553Z,94.13
2018-10-01T04:38:03.794Z,93.46
2018-10-01T04:39:03.535Z,93.55
2018-10-01T04:40:03.528Z,93.84
2018-10-01T04:41:03.517Z,93.93
2018-10-01T04:42:03.508Z,93.08
2018-10-01T04:43:03.501Z,92.79
2018-10-01T04:52:03.416Z,92.03
2018-10-01T04:53:03.412Z,91.55
2018-10-01T04:54:03.398Z,91.94
2018-10-01T04:55:03.390Z,91.55
2018-10-01T04:56:03.380Z,91.55
2018-10-01T04:57:03.423Z,91.74
2018-10-01T04:58:03.378Z,91.27
2018-10-01T04:59:03.359Z,91.65
2018-10-01T05:00:03.345Z,92.22
2018-10-01T05:01:03.333Z,92.41
2018-10-01T05:02:03.325Z,91.94
2018-10-01T05:03:03.315Z,91.17
2018-10-01T05:04:03.306Z,91.94
2018-10-01T05:05:03.296Z,91.55
2018-10-01T05:06:03.336Z,91.74
2018-10-01T05:07:03.277Z,91.74
2018-10-01T05:08:03.268Z,91.84
2018-10-01T05:09:03.259Z,91.46
2018-10-01T05:10:03.250Z,90.60
2018-10-01T05:11:03.241Z,90.60
2018-10-01T05:12:03.232Z,90.79
2018-10-01T05:13:03.222Z,91.17
2018-10-01T05:14:03.213Z,90.50
2018-10-01T05:15:03.208Z,91.36
2018-10-01T05:16:03.195Z,91.08
2018-10-01T05:17:03.186Z,91.65
2018-10-01T05:18:03.176Z,91.65
2018-10-01T05:19:03.167Z,91.22
2018-10-01T05:20:03.160Z,91.60
2018-10-01T05:21:03.149Z,90.27
2018-10-01T05:22:03.140Z,91.27
2018-10-01T05:23:03.131Z,91.22
2018-10-01T05:24:03.123Z,91.27
2018-10-01T05:25:03.113Z,90.70
2018-10-01T05:26:03.109Z,90.41
2018-10-01T05:27:03.134Z,90.27
2018-10-01T05:28:03.093Z,89.89
2018-10-01T05:29:03.076Z,90.27
2018-10-01T05:30:03.065Z,89.26
2018-10-01T05:31:03.056Z,89.03
2018-10-01T05:32:03.047Z,88.75
2018-10-01T05:33:03.038Z,88.75
2018-10-01T05:34:03.028Z,88.93
2018-10-01T05:35:03.019Z,89.03
2018-10-01T05:36:03.010Z,88.46
2018-10-01T05:37:03.001Z,88.65
2018-10-01T05:38:02.995Z,88.08
2018-10-01T05:39:02.982Z,87.60
2018-10-01T05:40:02.974Z,86.75
2018-10-01T05:41:02.963Z,87.32
2018-10-01T05:42:02.952Z,87.41
2018-10-01T05:43:02.952Z,86.84
2018-10-01T05:44:02.934Z,86.84
2018-10-01T05:45:02.925Z,87.23
2018-10-01T05:46:02.920Z,87.79
2018-10-01T05:47:02.914Z,87.23
2018-10-01T05:48:02.903Z,87.60
2018-10-01T05:49:02.946Z,88.18
2018-10-01T05:50:02.879Z,87.89
2018-10-01T05:51:02.868Z,88.18
2018-10-01T05:52:02.861Z,88.56
2018-10-01T05:53:02.850Z,88.27
2018-10-01T05:54:02.843Z,88.46
2018-10-01T05:55:02.835Z,88.84
2018-10-01T05:56:02.825Z,89.32
2018-10-01T05:57:02.812Z,89.22
2018-10-01T05:58:02.942Z,89.22
2018-10-01T05:59:02.792Z,89.70
2018-10-01T06:00:02.789Z,90.08
2018-10-01T06:01:02.775Z,90.36
2018-10-01T06:02:02.764Z,89.89
2018-10-01T06:03:02.755Z,90.08
2018-10-01T06:04:02.753Z,90.56
2018-10-01T06:05:02.736Z,90.56
2018-10-01T06:06:02.726Z,90.75
2018-10-01T06:07:02.721Z,90.75
2018-10-01T06:08:02.708Z,91.13
2018-10-01T06:09:02.700Z,90.46
2018-10-01T06:10:02.689Z,90.36
2018-10-01T06:11:02.679Z,91.41
2018-10-01T06:12:02.670Z,91.51
2018-10-01T06:13:02.660Z,91.31
2018-10-01T06:14:02.655Z,91.41
2018-10-01T06:15:02.646Z,91.41
2018-10-01T06:16:02.631Z,91.51
2018-10-01T06:17:02.625Z,91.22
2018-10-01T06:18:02.615Z,91.22
2018-10-01T06:19:02.604Z,91.13
2018-10-01T06:20:02.597Z,91.51
2018-10-01T06:21:02.836Z,91.31
2018-10-01T06:22:02.576Z,91.31
2018-10-01T06:23:02.571Z,91.79
2018-10-01T06:24:02.561Z,91.79
2018-10-01T06:25:02.610Z,91.89
2018-10-01T06:26:02.542Z,91.41
2018-10-01T06:27:02.530Z,91.51
2018-10-01T06:28:02.520Z,91.08
2018-10-01T06:29:02.516Z,91.03
2018-10-01T06:30:02.507Z,91.55
2018-10-01T06:31:02.492Z,91.36
2018-10-01T06:32:02.486Z,91.31
2018-10-01T06:33:02.474Z,91.31
2018-10-01T06:34:02.476Z,91.31
2018-10-01T06:35:02.456Z,91.70
2018-10-01T06:36:02.449Z,91.70
2018-10-01T06:37:02.439Z,91.22
2018-10-01T06:38:02.482Z,91.79
2018-10-01T06:39:02.419Z,91.31
2018-10-01T06:40:02.613Z,91.22
2018-10-01T06:41:02.606Z,91.46
2018-10-01T06:42:02.445Z,91.17
2018-10-01T06:43:02.383Z,91.36
2018-10-01T06:44:02.373Z,91.17
2018-10-01T06:45:02.370Z,90.70
2018-10-01T06:46:02.359Z,90.60
2018-10-01T06:47:02.349Z,90.79
2018-10-01T06:48:02.339Z,90.70
2018-10-01T06:49:02.330Z,90.41
2018-10-01T06:50:02.320Z,90.70
2018-10-01T06:51:02.322Z,90.60
2018-10-01T06:52:02.306Z,91.27
2018-10-01T06:53:02.295Z,90.70
2018-10-01T06:54:02.284Z,90.03
2018-10-01T06:55:02.281Z,90.22
2018-10-01T06:56:02.469Z,90.03
2018-10-01T06:57:02.259Z,90.12
2018-10-01T06:58:02.258Z,89.79
2018-10-01T06:59:02.493Z,89.50
2018-10-01T07:00:02.233Z,88.84
2018-10-01T07:01:02.257Z,88.93
2018-10-01T07:02:02.215Z,88.74
2018-10-01T07:03:02.209Z,88.26
2018-10-01T07:05:20.797Z,89.22
2018-10-01T07:06:20.783Z,89.17
2018-10-01T07:07:20.768Z,88.79
2018-10-01T07:08:20.776Z,89.26
2018-10-01T07:09:20.751Z,89.17
2018-10-01T07:10:20.745Z,88.89
2018-10-01T07:11:20.791Z,89.75
2018-10-01T07:12:20.726Z,89.55
2018-10-01T07:13:20.720Z,89.17
2018-10-01T07:14:20.709Z,88.79
2018-10-01T07:15:20.704Z,88.60
2018-10-01T07:16:21.191Z,88.64
2018-10-01T07:17:20.846Z,87.98
2018-10-01T07:18:20.676Z,87.79
2018-10-01T07:19:20.666Z,87.79
2018-10-01T07:20:20.658Z,87.31
2018-10-01T07:21:20.852Z,85.88
2018-10-01T07:22:20.650Z,86.16
2018-10-01T07:23:20.811Z,85.78
2018-10-01T07:24:20.628Z,85.60
2018-10-01T07:25:20.618Z,85.02
2018-10-01T07:26:20.611Z,85.31
2018-10-01T07:27:20.601Z,86.55
2018-10-01T07:28:20.600Z,86.45
2018-10-01T07:29:20.584Z,86.36
2018-10-01T07:30:20.583Z,86.07
2018-10-01T07:31:20.566Z,86.45
2018-10-01T07:32:20.561Z,87.21
2018-10-01T07:33:20.551Z,86.60
2018-10-01T07:34:20.801Z,86.60
2018-10-01T07:35:20.532Z,86.60
2018-10-01T07:36:20.525Z,86.32
2018-10-01T07:37:20.522Z,86.79
2018-10-01T07:38:20.513Z,86.98
2018-10-01T07:39:20.500Z,87.36
2018-10-01T07:40:20.491Z,87.27
2018-10-01T07:41:20.486Z,87.46
2018-10-01T07:42:20.475Z,87.65
2018-10-01T07:43:20.466Z,88.12
2018-10-01T07:44:20.458Z,87.60
2018-10-01T07:46:20.555Z,86.16
2018-10-01T07:47:20.434Z,85.25
2018-10-01T07:48:20.427Z,84.11
2018-10-01T07:49:20.423Z,82.49
2018-10-01T07:50:20.424Z,82.24
2018-10-01T07:51:20.412Z,81.29
2018-10-01T07:52:20.445Z,80.28
2018-10-01T07:53:20.490Z,80.47
2018-10-01T07:54:20.405Z,79.52
2018-10-01T07:55:20.593Z,78.85
2018-10-01T07:56:20.585Z,78.66
2018-10-01T07:57:20.396Z,77.70
2018-10-01T07:58:20.375Z,77.70
2018-10-01T07:59:20.371Z,77.99
2018-10-01T08:00:20.383Z,78.13
2018-10-01T08:01:20.368Z,76.88
2018-10-01T08:02:20.371Z,76.88
2018-10-01T08:03:20.358Z,76.40
2018-10-01T08:04:20.355Z,76.60
2018-10-01T08:05:20.353Z,76.31
2018-10-01T08:06:20.411Z,75.93
2018-10-01T08:07:20.347Z,75.35
2018-10-01T08:08:20.408Z,76.03
2018-10-01T08:09:20.372Z,75.83
2018-10-01T08:10:20.341Z,76.50
2018-10-01T08:11:20.338Z,76.21
2018-10-01T08:12:20.336Z,76.12
2018-10-01T08:13:20.341Z,75.96
2018-10-01T08:14:20.570Z,75.01
2018-10-01T08:15:20.331Z,74.44
2018-10-01T08:16:20.539Z,73.58
2018-10-01T08:17:20.330Z,73.71
2018-10-01T08:18:20.327Z,73.99
2018-10-01T08:19:20.326Z,73.19
2018-10-01T08:20:20.371Z,74.15
2018-10-01T08:21:20.331Z,73.86
2018-10-01T08:22:20.324Z,74.30
2018-10-01T08:23:20.321Z,75.07
2018-10-01T08:24:20.323Z,75.54
2018-10-01T08:25:20.322Z,75.83
2018-10-01T08:26:20.334Z,75.39
2018-10-01T08:27:20.314Z,74.24
2018-10-01T08:28:20.312Z,73.14
2018-10-01T08:29:20.331Z,73.14
2018-10-01T08:30:20.310Z,73.43
2018-10-01T08:31:20.308Z,73.52
2018-10-01T08:32:20.319Z,72.85
2018-10-01T08:33:20.306Z,73.04
2018-10-01T08:34:20.306Z,71.99
2018-10-01T08:35:20.335Z,72.31
2018-10-01T08:36:20.303Z,70.11
2018-10-01T08:37:20.308Z,69.64
2018-10-01T08:38:20.410Z,69.44
2018-10-01T08:39:20.302Z,69.44
2018-10-01T08:40:20.508Z,69.35
2018-10-01T08:41:20.334Z,69.25
2018-10-01T08:42:20.307Z,69.92
2018-10-01T08:43:20.305Z,69.06
2018-10-01T08:44:20.343Z,69.64
2018-10-01T08:45:20.306Z,69.64
2018-10-01T08:46:20.303Z,68.87
2018-10-01T08:47:20.363Z,69.25
2018-10-01T08:48:20.303Z,68.80
2018-10-01T08:49:20.305Z,69.29
2018-10-01T08:50:20.360Z,68.07
2018-10-01T08:51:20.306Z,67.85
2018-10-01T08:52:20.306Z,68.74
2018-10-01T08:53:20.318Z,67.18
2018-10-01T08:54:20.312Z,68.49
2018-10-01T08:55:20.309Z,69.86
2018-10-01T08:56:20.360Z,68.90
2018-10-01T08:57:20.310Z,68.62
2018-10-01T08:58:20.315Z,68.29
2018-10-01T08:59:20.368Z,69.64
2018-10-01T09:01:20.308Z,70.21
2018-10-01T09:02:20.344Z,69.76
2018-10-01T09:03:20.510Z,69.29
2018-10-01T09:04:20.309Z,68.52
2018-10-01T09:05:20.362Z,67.94
2018-10-01T09:06:20.314Z,67.56
2018-10-01T09:07:20.511Z,68.33
2018-10-01T09:08:20.312Z,68.87
2018-10-01T09:09:20.312Z,70.17
2018-10-01T09:10:20.307Z,70.65
2018-10-01T09:11:20.308Z,72.14
2018-10-01T09:13:20.503Z,73.33
2018-10-01T09:14:20.303Z,71.61
2018-10-01T09:15:20.300Z,71.61
2018-10-01T09:16:20.303Z,71.13
2018-10-01T09:17:20.332Z,70.78
2018-10-01T09:18:20.293Z,70.94
2018-10-01T09:19:20.291Z,72.75
2018-10-01T09:20:20.307Z,71.80
2018-10-01T09:21:20.371Z,72.72
2018-10-01T09:22:20.281Z,73.29
2018-10-01T09:23:20.305Z,74.15
2018-10-01T09:24:20.275Z,73.07
2018-10-01T09:25:20.268Z,73.07
2018-10-01T09:26:20.299Z,73.25
2018-10-01T09:27:20.260Z,73.25
2018-10-01T09:28:20.256Z,73.07
2018-10-01T09:29:20.303Z,73.25
2018-10-01T09:30:20.256Z,72.33
2018-10-01T09:31:20.243Z,72.11
2018-10-01T09:32:20.249Z,70.96
2018-10-01T09:33:20.232Z,70.14
2018-10-01T09:35:20.273Z,69.12
2018-10-01T09:36:20.420Z,68.93
2018-10-01T09:38:20.262Z,67.40
2018-10-01T09:39:20.206Z,67.97
2018-10-01T09:40:20.421Z,67.02
2018-10-01T09:41:20.199Z,66.09
2018-10-01T09:42:20.196Z,66.38
2018-10-01T09:43:20.191Z,66.00
2018-10-01T09:44:20.192Z,65.71
2018-10-01T09:45:20.186Z,64.88
2018-10-01T09:46:20.209Z,64.72
2018-10-01T09:47:20.185Z,63.35
2018-10-01T09:48:20.178Z,62.97
2018-10-01T09:49:20.177Z,64.09
2018-10-01T09:50:20.188Z,64.66
2018-10-01T09:51:20.169Z,65.90
2018-10-01T09:52:20.170Z,65.58
2018-10-01T09:53:20.163Z,66.63
2018-10-01T09:54:20.159Z,67.97
2018-10-01T09:55:20.155Z,67.46
2018-10-01T09:56:20.185Z,69.09
2018-10-01T09:57:20.146Z,70.52
2018-10-01T09:58:20.184Z,72.11
2018-10-01T09:59:20.137Z,71.06
2018-10-01T10:00:20.132Z,71.72
2018-10-01T10:01:20.126Z,73.79
2018-10-01T10:02:20.147Z,74.84
2018-10-01T10:03:20.117Z,75.79
2018-10-01T10:04:20.186Z,76.56
2018-10-01T10:05:20.102Z,76.37
2018-10-01T10:06:20.099Z,77.03
2018-10-01T10:07:20.089Z,76.79
2018-10-01T10:08:20.128Z,75.96
2018-10-01T10:09:20.083Z,73.33
2018-10-01T10:10:20.101Z,70.59
2018-10-01T10:11:20.088Z,69.82
2018-10-01T10:12:20.067Z,67.66
2018-10-01T10:13:20.065Z,67.31
2018-10-01T10:14:20.075Z,66.58
2018-10-01T10:15:20.058Z,64.09
2018-10-01T10:16:20.201Z,61.69
2018-10-01T10:17:20.082Z,60.73
2018-10-01T10:18:20.056Z,60.70
2018-10-01T10:19:20.055Z,60.35
2018-10-01T10:20:20.057Z,61.31
2018-10-01T10:21:20.056Z,61.40
2018-10-01T10:22:20.118Z,61.79
2018-10-01T10:23:20.062Z,62.59
2018-10-01T10:24:20.064Z,60.09
2018-10-01T10:25:20.059Z,60.83
2018-10-01T10:26:20.110Z,61.05
2018-10-01T10:27:20.059Z,62.55
2018-10-01T10:28:20.119Z,63.99
2018-10-01T10:29:20.061Z,64.66
2018-10-01T10:30:20.056Z,65.68
2018-10-01T10:31:20.059Z,65.52
2018-10-01T10:32:20.096Z,66.51
2018-10-01T10:33:20.050Z,64.82
2018-10-01T10:34:20.079Z,63.96
2018-10-01T10:35:20.065Z,61.88
2018-10-01T10:36:20.046Z,61.11
2018-10-01T10:37:20.045Z,60.03
2018-10-01T10:38:20.256Z,60.70
2018-10-01T10:39:20.055Z,59.87
2018-10-01T10:40:20.043Z,59.01
2018-10-01T10:41:20.045Z,57.83
2018-10-01T10:42:20.041Z,59.27
2018-10-01T10:43:20.039Z,60.22
2018-10-01T10:44:20.075Z,61.25
2018-10-01T10:45:20.036Z,60.00
2018-10-01T10:46:20.040Z,61.79
2018-10-01T10:47:20.030Z,63.39
2018-10-01T10:48:20.028Z,66.06
2018-10-01T10:49:20.025Z,66.70
2018-10-01T10:50:20.029Z,67.84
2018-10-01T10:51:20.015Z,68.19
2018-10-01T10:52:20.012Z,69.34
2018-10-01T10:53:20.009Z,69.05
2018-10-01T10:54:20.002Z,68.76
2018-10-01T10:55:19.997Z,69.53
2018-10-01T10:56:20.020Z,71.00
2018-10-01T10:57:20.693Z,70.71
2018-10-01T10:58:19.984Z,69.18
2018-10-01T10:59:19.981Z,68.80
2018-10-01T11:00:20.173Z,68.90
2018-10-01T11:01:19.972Z,70.29
2018-10-01T11:02:20.017Z,71.00
2018-10-01T11:03:19.959Z,70.71
2018-10-01T11:04:19.953Z,69.12
2018-10-01T11:05:19.949Z,69.67
2018-10-01T11:06:19.948Z,67.60
2018-10-01T11:07:19.985Z,66.58
2018-10-01T11:08:19.947Z,63.51
2018-10-01T11:09:19.938Z,62.36
2018-10-01T11:10:19.936Z,62.65
2018-10-01T11:11:19.932Z,63.10
2018-10-01T11:12:19.937Z,63.10
2018-10-01T11:13:19.936Z,63.96
2018-10-01T11:14:20.081Z,63.00
2018-10-01T11:15:20.123Z,62.55
2018-10-01T11:16:19.923Z,62.46
2018-10-01T11:17:19.928Z,60.73
2018-10-01T11:18:19.944Z,61.98
2018-10-01T11:19:20.359Z,62.52
2018-10-01T11:20:20.077Z,64.50
2018-10-01T11:21:19.977Z,67.21
2018-10-01T11:22:19.935Z,70.39
2018-10-01T11:23:19.918Z,73.60
2018-10-01T11:24:19.898Z,77.19
2018-10-01T11:25:19.976Z,80.58
2018-10-01T11:26:19.889Z,83.40
2018-10-01T11:27:19.983Z,86.22
2018-10-01T11:28:19.877Z,88.70
2018-10-01T11:29:19.873Z,89.46
2018-10-01T11:30:19.865Z,90.70
2018-10-01T11:31:19.854Z,91.41
2018-10-01T11:32:19.849Z,92.08
2018-10-01T11:33:19.892Z,92.18
2018-10-01T11:34:19.908Z,92.74
2018-10-01T11:35:19.973Z,92.74
2018-10-01T11:36:19.822Z,92.18
2018-10-01T11:37:19.814Z,92.46
2018-10-01T11:38:19.802Z,93.70
2018-10-01T11:39:19.933Z,92.65
2018-10-01T11:40:19.784Z,92.50
2018-10-01T11:41:19.788Z,91.74
2018-10-01T11:42:19.770Z,90.22
2018-10-01T11:43:19.763Z,90.89
2018-10-01T11:44:19.958Z,91.84
2018-10-01T11:45:19.847Z,92.50
2018-10-01T11:46:19.772Z,92.79
2018-10-01T11:47:19.733Z,90.60
2018-10-01T11:48:19.722Z,90.64
2018-10-01T11:49:19.724Z,91.31
2018-10-01T11:50:19.704Z,90.08
2018-10-01T11:51:19.703Z,87.54
2018-10-01T11:52:19.689Z,87.07
2018-10-01T11:53:19.884Z,88.31
2018-10-01T11:54:19.755Z,87.64
2018-10-01T11:55:19.674Z,84.59
2018-10-01T11:56:19.661Z,84.11
2018-10-01T11:57:19.793Z,84.40
2018-10-01T11:58:19.653Z,86.06
2018-10-01T11:59:19.646Z,83.48
2018-10-01T12:00:19.638Z,82.86
2018-10-01T12:01:19.629Z,83.14
2018-10-01T12:02:19.826Z,81.52
2018-10-01T12:03:19.967Z,80.19
2018-10-01T12:04:19.620Z,78.56
2018-10-01T12:05:19.610Z,79.65
2018-10-01T12:06:19.600Z,80.90
2018-10-01T12:07:19.595Z,80.57
2018-10-01T12:08:19.589Z,79.61
2018-10-01T12:09:19.841Z,80.47
2018-10-01T12:10:19.644Z,81.24
2018-10-01T12:11:19.571Z,81.38
2018-10-01T12:12:19.767Z,82.06
2018-10-01T12:13:19.559Z,82.63
2018-10-01T12:14:19.555Z,82.72
2018-10-01T12:15:19.604Z,83.96
2018-10-01T12:16:19.543Z,82.72
2018-10-01T12:17:19.540Z,82.15
2018-10-01T12:18:19.528Z,84.16
2018-10-01T12:19:19.521Z,83.67
2018-10-01T12:20:19.515Z,84.44
2018-10-01T12:21:19.632Z,83.29
2018-10-01T12:22:19.505Z,84.10
2018-10-01T12:23:19.494Z,83.62
2018-10-01T12:24:19.491Z,82.76
2018-10-01T12:25:19.483Z,81.09
2018-10-01T12:26:19.479Z,79.75
2018-10-01T12:27:19.676Z,80.61
2018-10-01T12:28:19.463Z,80.36
2018-10-01T12:29:19.458Z,78.74
2018-10-01T12:30:19.452Z,78.07
2018-10-01T12:31:19.446Z,75.34
2018-10-01T12:32:19.440Z,73.90
2018-10-01T12:33:19.542Z,74.48
2018-10-01T12:34:19.433Z,74.57
2018-10-01T12:35:19.425Z,73.61
2018-10-01T12:36:19.422Z,73.27
2018-10-01T12:37:19.418Z,72.92
2018-10-01T12:38:19.410Z,70.09
2018-10-01T12:39:19.724Z,68.49
2018-10-01T12:40:19.402Z,67.66
2018-10-01T12:41:19.404Z,66.80
2018-10-01T12:42:19.396Z,65.46
2018-10-01T12:43:19.389Z,63.73
2018-10-01T12:44:19.390Z,63.16
2018-10-01T12:45:19.475Z,63.06
2018-10-01T12:46:19.384Z,62.87
2018-10-01T12:47:19.375Z,64.09
2018-10-01T12:48:19.377Z,65.68
2018-10-01T12:49:19.372Z,67.56
2018-10-01T12:50:19.435Z,68.52
2018-10-01T12:51:19.448Z,69.06
2018-10-01T12:52:19.359Z,68.58
2018-10-01T12:53:19.354Z,69.41
2018-10-01T12:54:19.349Z,70.94
2018-10-01T12:55:19.345Z,70.90
2018-10-01T12:56:19.340Z,72.81
2018-10-01T12:57:19.488Z,72.87
2018-10-01T12:58:19.331Z,74.78
2018-10-01T12:59:19.400Z,75.83
2018-10-01T13:00:19.318Z,75.98
2018-10-01T13:01:19.312Z,77.23
2018-10-01T13:02:19.311Z,76.94
2018-10-01T13:03:19.301Z,77.80
2018-10-01T13:04:19.296Z,78.56
2018-10-01T13:05:19.293Z,77.89
2018-10-01T13:06:19.384Z,76.88